createdAt,value
2023-02-11T00:00:42.861Z,5.68
2023-02-11T00:03:10.150Z,5.43
2023-02-11T00:05:37.074Z,5.10
2023-02-11T00:08:03.959Z,5.25
2023-02-11T00:10:30.925Z,4.75
2023-02-11T00:12:57.743Z,6.15
2023-02-11T00:15:24.538Z,5.43
2023-02-11T00:17:51.355Z,5.68
2023-02-11T00:20:18.165Z,5.03
2023-02-11T00:22:45.482Z,5.85
2023-02-11T00:25:12.301Z,5.97
2023-02-11T00:27:39.080Z,6.90
2023-02-11T00:30:06.423Z,5.63
2023-02-11T00:32:33.190Z,5.32
2023-02-11T00:34:59.955Z,5.55
2023-02-11T00:37:26.759Z,5.72
2023-02-11T00:39:53.708Z,5.57
2023-02-11T00:42:20.458Z,5.78
2023-02-11T00:44:47.279Z,5.70
2023-02-11T00:47:14.097Z,7.57
2023-02-11T00:49:40.863Z,5.93
2023-02-11T00:52:07.823Z,4.90
2023-02-11T00:54:34.756Z,6.85
2023-02-11T00:57:01.910Z,5.63
2023-02-11T00:59:28.901Z,6.03
2023-02-11T01:01:55.868Z,4.88
2023-02-11T01:04:22.934Z,6.97
2023-02-11T01:06:49.722Z,5.88
2023-02-11T01:09:16.583Z,6.03
2023-02-11T01:11:43.460Z,5.72
2023-02-11T01:14:10.627Z,5.28
2023-02-11T01:16:37.498Z,6.90
2023-02-11T01:19:04.350Z,5.78
2023-02-11T01:21:31.109Z,6.38
2023-02-11T01:23:57.845Z,6.60
2023-02-11T01:26:24.738Z,6.35
2023-02-11T01:28:51.535Z,5.60
2023-02-11T01:31:18.449Z,6.65
2023-02-11T01:33:45.808Z,6.47
2023-02-11T01:36:13.144Z,6.18
2023-02-11T01:38:40.967Z,5.95
2023-02-11T01:41:11.342Z,7.63
2023-02-11T01:43:42.469Z,6.70
2023-02-11T01:46:18.216Z,8.38
2023-02-11T01:48:51.244Z,6.70
2023-02-11T01:51:28.945Z,5.78
2023-02-11T01:54:15.636Z,6.18
2023-02-11T01:57:05.570Z,7.28
2023-02-11T01:59:38.380Z,6.00
2023-02-11T02:02:10.216Z,6.72
2023-02-11T02:04:46.734Z,6.55
2023-02-11T02:07:23.285Z,7.25
2023-02-11T02:09:56.053Z,6.15
2023-02-11T02:12:22.772Z,7.28
2023-02-11T02:14:49.503Z,6.07
2023-02-11T02:17:37.785Z,7.85
2023-02-11T02:20:59.695Z,6.85
2023-02-11T02:23:40.810Z,6.22
2023-02-11T02:26:19.852Z,6.00
2023-02-11T02:29:24.675Z,6.18
2023-02-11T02:31:51.463Z,5.70
2023-02-11T02:34:36.522Z,7.28
2023-02-11T02:37:21.602Z,6.28
2023-02-11T02:39:50.231Z,6.40
2023-02-11T02:42:19.689Z,6.63
2023-02-11T02:44:51.928Z,6.50
2023-02-11T02:47:18.838Z,7.63
2023-02-11T02:49:45.609Z,6.85
2023-02-11T02:52:36.779Z,6.22
2023-02-11T02:55:15.874Z,6.75
2023-02-11T02:58:06.756Z,6.63
2023-02-11T03:01:04.974Z,9.82
2023-02-11T03:03:52.820Z,8.20
2023-02-11T03:06:54.939Z,6.93
2023-02-11T03:09:32.018Z,7.15
2023-02-11T03:12:00.618Z,7.15
2023-02-11T03:14:30.106Z,7.75
2023-02-11T03:16:59.816Z,7.95
2023-02-11T03:19:30.721Z,6.97
2023-02-11T03:21:57.997Z,7.10
2023-02-11T03:24:34.418Z,7.55
2023-02-11T03:27:10.664Z,9.45
2023-02-11T03:30:07.372Z,7.55
2023-02-11T03:32:41.352Z,6.88
2023-02-11T03:35:16.484Z,7.35
2023-02-11T03:37:51.083Z,8.73
2023-02-11T03:40:22.446Z,7.22
2023-02-11T03:43:03.118Z,6.72
2023-02-11T03:45:30.787Z,7.10
2023-02-11T03:48:05.616Z,8.00
2023-02-11T03:50:35.109Z,8.13
2023-02-11T03:53:03.664Z,6.40
2023-02-11T03:55:31.877Z,8.60
2023-02-11T03:57:58.679Z,8.68
2023-02-11T04:00:37.396Z,9.38
2023-02-11T04:03:04.926Z,10.15
2023-02-11T04:05:32.247Z,9.88
2023-02-11T04:07:59.210Z,10.20
2023-02-11T04:10:26.046Z,9.75
2023-02-11T04:12:52.792Z,10.73
2023-02-11T04:15:19.911Z,10.43
2023-02-11T04:17:46.792Z,10.63
2023-02-11T04:20:13.707Z,9.90
2023-02-11T04:22:40.728Z,11.73
2023-02-11T04:25:09.394Z,12.15
2023-02-11T04:27:36.655Z,12.63
2023-02-11T04:30:04.641Z,13.32
2023-02-11T04:32:31.602Z,12.85
2023-02-11T04:34:58.382Z,12.93
2023-02-11T04:37:25.216Z,14.02
2023-02-11T04:39:52.055Z,13.48
2023-02-11T04:42:18.860Z,14.05
2023-02-11T04:44:45.692Z,16.95
2023-02-11T04:47:13.485Z,14.90
2023-02-11T04:49:40.263Z,16.00
2023-02-11T04:52:07.368Z,15.70
2023-02-11T04:54:34.157Z,14.75
2023-02-11T04:57:01.166Z,16.23
2023-02-11T04:59:28.209Z,15.63
2023-02-11T05:01:55.036Z,17.73
2023-02-11T05:04:21.888Z,16.92
2023-02-11T05:06:48.763Z,15.95
2023-02-11T05:09:15.717Z,16.10
2023-02-11T05:11:42.599Z,16.73
2023-02-11T05:14:09.327Z,16.23
2023-02-11T05:16:36.220Z,16.02
2023-02-11T05:19:03.097Z,16.38
2023-02-11T05:21:29.953Z,17.98
2023-02-11T05:23:56.796Z,16.38
2023-02-11T05:26:23.625Z,18.42
2023-02-11T05:28:50.407Z,18.38
2023-02-11T05:31:17.559Z,18.25
2023-02-11T05:33:44.377Z,17.05
2023-02-11T05:36:13.485Z,19.80
2023-02-11T05:38:40.845Z,18.67
2023-02-11T05:41:07.784Z,19.70
2023-02-11T05:43:37.564Z,19.67
2023-02-11T05:46:05.646Z,20.55
2023-02-11T05:48:32.760Z,18.58
2023-02-11T05:50:59.732Z,18.95
2023-02-11T05:53:26.687Z,20.65
2023-02-11T05:55:53.659Z,19.33
2023-02-11T05:58:20.405Z,18.85
2023-02-11T06:00:47.153Z,20.85
2023-02-11T06:03:13.999Z,21.63
2023-02-11T06:05:42.275Z,20.30
2023-02-11T06:08:09.200Z,21.83
2023-02-11T06:10:36.030Z,21.15
2023-02-11T06:13:02.824Z,21.50
2023-02-11T06:15:29.600Z,22.45
2023-02-11T06:17:56.725Z,19.27
2023-02-11T06:20:23.562Z,21.55
2023-02-11T06:22:50.407Z,20.88
2023-02-11T06:25:17.312Z,21.25
2023-02-11T06:27:44.224Z,20.38
2023-02-11T06:30:11.901Z,22.70
2023-02-11T06:32:44.371Z,22.02
2023-02-11T06:35:12.718Z,22.35
2023-02-11T06:37:40.913Z,23.83
2023-02-11T06:40:08.702Z,23.48
2023-02-11T06:42:36.304Z,22.73
2023-02-11T06:45:06.217Z,22.58
2023-02-11T06:47:33.266Z,24.35
2023-02-11T06:50:00.702Z,24.77
2023-02-11T06:52:27.721Z,23.98
2023-02-11T06:54:54.525Z,23.80
2023-02-11T06:57:21.332Z,23.83
2023-02-11T06:59:48.190Z,25.45
2023-02-11T07:02:15.050Z,24.50
2023-02-11T07:04:41.892Z,25.75
2023-02-11T07:07:08.720Z,24.20
2023-02-11T07:09:35.626Z,24.77
2023-02-11T07:12:02.361Z,27.27
2023-02-11T07:14:29.183Z,26.00
2023-02-11T07:16:55.980Z,26.50
2023-02-11T07:19:22.742Z,24.85
2023-02-11T07:21:49.550Z,25.63
2023-02-11T07:24:16.399Z,26.20
2023-02-11T07:26:43.282Z,24.38
2023-02-11T07:29:10.090Z,28.05
2023-02-11T07:31:37.002Z,27.77
2023-02-11T07:34:04.082Z,26.95
2023-02-11T07:36:34.504Z,26.70
2023-02-11T07:39:01.368Z,26.83
2023-02-11T07:41:28.461Z,27.60
2023-02-11T07:43:55.891Z,28.35
2023-02-11T07:46:25.597Z,25.90
2023-02-11T07:48:53.116Z,27.88
2023-02-11T07:51:21.555Z,26.05
2023-02-11T07:53:48.551Z,26.77
2023-02-11T07:56:17.103Z,29.77
2023-02-11T07:58:44.572Z,27.20
2023-02-11T08:01:14.737Z,27.77
2023-02-11T08:03:45.023Z,26.23
2023-02-11T08:06:17.195Z,24.60
2023-02-11T08:08:44.155Z,26.08
2023-02-11T08:11:23.293Z,25.88
2023-02-11T08:13:50.574Z,24.83
2023-02-11T08:16:21.561Z,26.55
2023-02-11T08:18:49.169Z,25.85
2023-02-11T08:21:16.425Z,26.92
2023-02-11T08:23:45.062Z,27.33
2023-02-11T08:26:17.774Z,25.20
2023-02-11T08:28:46.951Z,25.13
2023-02-11T08:31:16.302Z,26.75
2023-02-11T08:33:43.379Z,27.58
2023-02-11T08:36:13.341Z,25.73
2023-02-11T08:38:40.725Z,26.85
2023-02-11T08:41:08.002Z,25.88
2023-02-11T08:43:35.885Z,25.25
2023-02-11T08:46:03.083Z,25.40
2023-02-11T08:48:30.601Z,25.80
2023-02-11T08:50:57.744Z,26.45
2023-02-11T08:53:25.098Z,24.55
2023-02-11T08:55:53.996Z,26.00
2023-02-11T08:58:21.749Z,25.20
2023-02-11T09:00:50.015Z,24.80
2023-02-11T09:03:17.798Z,24.50
2023-02-11T09:05:46.783Z,24.35
2023-02-11T09:08:14.651Z,25.25
2023-02-11T09:10:41.666Z,24.83
2023-02-11T09:13:09.042Z,23.23
2023-02-11T09:15:36.156Z,24.55
2023-02-11T09:18:06.375Z,23.85
2023-02-11T09:20:33.212Z,22.10
2023-02-11T09:23:00.063Z,24.08
2023-02-11T09:25:27.098Z,22.73
2023-02-11T09:27:54.034Z,24.45
2023-02-11T09:30:20.990Z,22.50
2023-02-11T09:32:47.939Z,22.35
2023-02-11T09:35:14.734Z,22.67
2023-02-11T09:37:41.727Z,23.52
2023-02-11T09:40:09.287Z,22.58
2023-02-11T09:42:41.745Z,21.58
2023-02-11T09:45:19.504Z,23.05
2023-02-11T09:47:50.727Z,21.92
2023-02-11T09:50:45.901Z,21.40
2023-02-11T09:53:27.017Z,22.35
2023-02-11T09:56:10.704Z,21.15
2023-02-11T09:58:41.023Z,20.23
2023-02-11T10:01:37.734Z,20.90
2023-02-11T10:04:07.716Z,21.48
2023-02-11T10:06:57.172Z,19.75
2023-02-11T10:09:45.046Z,20.55
2023-02-11T10:12:12.471Z,18.88
2023-02-11T10:15:16.557Z,19.25
2023-02-11T10:18:02.180Z,17.23
2023-02-11T10:20:45.182Z,17.25
2023-02-11T10:23:20.965Z,16.92
2023-02-11T10:25:54.452Z,16.33
2023-02-11T10:28:33.284Z,16.20
2023-02-11T10:31:15.849Z,17.00
2023-02-11T10:33:59.321Z,17.33
2023-02-11T10:36:29.955Z,16.73
2023-02-11T10:39:10.000Z,16.13
2023-02-11T10:41:41.320Z,16.27
2023-02-11T10:46:40.223Z,15.65
2023-02-11T10:49:07.236Z,16.05
2023-02-11T10:51:34.598Z,15.60
2023-02-11T10:54:04.346Z,16.08
2023-02-11T10:56:55.026Z,14.38
2023-02-11T10:59:29.335Z,15.27
2023-02-11T11:02:02.431Z,14.75
2023-02-11T11:04:45.346Z,14.75
2023-02-11T11:07:12.217Z,13.95
2023-02-11T11:09:45.142Z,14.82
2023-02-11T11:12:28.716Z,14.23
2023-02-11T11:14:57.638Z,13.65
2023-02-11T11:17:29.054Z,13.27
2023-02-11T11:22:42.658Z,11.45
2023-02-11T11:25:26.869Z,11.60
2023-02-11T11:27:58.017Z,13.40
2023-02-11T11:30:32.629Z,11.43
2023-02-11T11:33:00.707Z,12.75
2023-02-11T11:35:31.067Z,11.05
2023-02-11T11:38:02.377Z,10.05
2023-02-11T11:40:32.115Z,10.20
2023-02-11T11:43:13.540Z,11.93
2023-02-11T11:45:54.408Z,10.02
2023-02-11T11:48:24.022Z,10.68
2023-02-11T11:50:56.342Z,9.38
2023-02-11T11:53:44.160Z,9.90
2023-02-11T11:56:24.379Z,9.50
2023-02-11T11:58:51.534Z,7.35
2023-02-11T12:01:39.163Z,7.05
2023-02-11T12:04:37.089Z,7.32
2023-02-11T12:07:28.380Z,7.07
2023-02-11T12:10:22.447Z,8.27
2023-02-11T12:12:58.420Z,10.02
2023-02-11T12:15:34.102Z,7.60
2023-02-11T12:18:15.891Z,6.55
2023-02-11T12:20:59.874Z,6.60
2023-02-11T12:23:54.343Z,6.85
2023-02-11T12:26:46.112Z,7.43
2023-02-11T12:29:21.983Z,6.05
2023-02-11T12:32:07.155Z,6.80
2023-02-11T12:34:46.688Z,8.13
2023-02-11T12:37:41.314Z,6.65
2023-02-11T12:40:41.346Z,7.30
2023-02-11T12:43:21.970Z,7.38
2023-02-11T12:46:20.897Z,6.33
2023-02-11T12:49:21.430Z,5.28
2023-02-11T12:52:08.977Z,6.13
2023-02-11T12:54:54.309Z,5.72
2023-02-11T12:57:27.213Z,6.45
2023-02-11T13:00:09.277Z,7.18
2023-02-11T13:02:47.547Z,5.88
2023-02-11T13:05:49.765Z,5.97
2023-02-11T13:08:28.906Z,6.45
2023-02-11T13:11:02.563Z,5.50
2023-02-11T13:13:34.587Z,5.43
2023-02-11T13:16:07.988Z,6.03
2023-02-11T13:18:40.901Z,5.85
2023-02-11T13:21:26.216Z,6.05
2023-02-11T13:24:00.957Z,5.78
2023-02-11T13:26:32.036Z,6.25
2023-02-11T13:29:26.677Z,6.40
2023-02-11T13:31:58.282Z,5.78
2023-02-11T13:34:46.335Z,6.93
2023-02-11T13:37:32.555Z,5.75
2023-02-11T13:40:05.959Z,5.60
2023-02-11T13:42:35.003Z,6.03
2023-02-11T13:45:02.118Z,6.00
2023-02-11T13:47:33.570Z,5.63
2023-02-11T13:52:37.971Z,6.30
2023-02-11T13:55:21.640Z,6.45
2023-02-11T13:58:08.354Z,24.17
2023-02-11T14:00:35.110Z,9.80
2023-02-11T14:03:29.548Z,6.25
2023-02-11T14:06:26.894Z,19.67
2023-02-11T14:09:28.593Z,10.98
2023-02-11T14:15:06.697Z,6.60
2023-02-11T14:17:34.715Z,7.18
2023-02-11T14:20:04.684Z,5.95
2023-02-11T14:22:44.289Z,6.13
2023-02-11T14:25:25.530Z,5.70
2023-02-11T14:28:25.915Z,7.78
2023-02-11T14:31:25.129Z,6.32
2023-02-11T14:34:34.966Z,19.52
2023-02-11T14:37:28.766Z,9.27
2023-02-11T14:40:34.971Z,33.45
2023-02-11T14:43:12.069Z,6.55
2023-02-11T14:45:40.052Z,6.45
2023-02-11T14:48:18.391Z,6.40
2023-02-11T14:50:52.383Z,5.45
2023-02-11T14:53:23.904Z,5.78
2023-02-11T14:55:53.043Z,6.18
2023-02-11T14:58:21.198Z,5.43
2023-02-11T15:01:07.415Z,5.40
2023-02-11T15:03:40.123Z,5.75
2023-02-11T15:06:12.944Z,6.25
2023-02-11T15:08:45.776Z,6.13
2023-02-11T15:11:15.710Z,5.65
2023-02-11T15:13:48.136Z,6.45
2023-02-11T15:16:21.629Z,5.78
2023-02-11T15:18:52.807Z,5.43
2023-02-11T15:21:26.522Z,5.57
2023-02-11T15:24:02.485Z,5.90
2023-02-11T15:26:30.295Z,6.38
2023-02-11T15:28:57.084Z,5.35
2023-02-11T15:31:26.465Z,5.95
2023-02-11T15:33:54.252Z,6.47
2023-02-11T15:36:28.478Z,6.28
2023-02-11T15:39:33.183Z,5.57
2023-02-11T15:42:23.047Z,6.97
2023-02-11T15:45:08.212Z,6.97
2023-02-11T15:47:35.825Z,6.03
2023-02-11T15:50:03.021Z,6.35
2023-02-11T15:52:30.054Z,6.22
2023-02-11T15:55:00.655Z,5.68
2023-02-11T15:57:28.027Z,6.28
2023-02-11T15:59:57.365Z,5.20
2023-02-11T16:02:36.708Z,6.35
2023-02-11T16:05:07.435Z,6.50
2023-02-11T16:07:46.006Z,6.75
2023-02-11T16:10:27.601Z,6.35
2023-02-11T16:15:55.807Z,6.47
2023-02-11T16:18:37.795Z,11.52
2023-02-11T16:21:07.729Z,6.88
2023-02-11T16:23:42.412Z,8.80
2023-02-11T16:26:23.872Z,7.00
2023-02-11T16:28:51.267Z,6.65
2023-02-11T16:31:18.767Z,6.88
2023-02-11T16:33:45.673Z,6.63
2023-02-11T16:36:14.713Z,6.40
2023-02-11T16:38:41.564Z,6.75
2023-02-11T16:41:11.839Z,7.07
2023-02-11T16:43:40.097Z,6.88
2023-02-11T16:46:07.022Z,6.38
2023-02-11T16:48:33.935Z,6.15
2023-02-11T16:51:00.974Z,6.10
2023-02-11T16:53:28.022Z,8.02
2023-02-11T16:55:54.838Z,11.30
2023-02-11T16:58:21.705Z,7.95
2023-02-11T17:00:49.174Z,8.40
2023-02-11T17:03:24.657Z,8.35
2023-02-11T17:05:58.095Z,7.45
2023-02-11T17:08:25.144Z,6.97
2023-02-11T17:10:52.201Z,8.30
2023-02-11T17:13:19.281Z,7.68
2023-02-11T17:15:46.219Z,8.93
2023-02-11T17:18:16.767Z,8.80
2023-02-11T17:20:43.838Z,12.93
2023-02-11T17:23:10.712Z,10.40
2023-02-11T17:25:37.554Z,10.02
2023-02-11T17:28:08.606Z,51.72
2023-02-11T17:30:35.691Z,18.45
2023-02-11T17:33:02.499Z,18.38
2023-02-11T17:35:29.365Z,11.95
2023-02-11T17:37:57.959Z,9.38
2023-02-11T17:40:24.735Z,9.40
2023-02-11T17:42:51.489Z,11.13
2023-02-11T17:45:20.386Z,9.48
2023-02-11T17:47:49.507Z,10.38
2023-02-11T17:50:16.427Z,9.93
2023-02-11T17:52:43.216Z,10.85
2023-02-11T17:55:10.006Z,9.25
2023-02-11T17:57:37.192Z,9.30
2023-02-11T18:00:07.567Z,9.80
2023-02-11T18:02:34.651Z,9.38
2023-02-11T18:05:01.504Z,9.40
2023-02-11T18:07:28.582Z,11.02
2023-02-11T18:09:55.418Z,11.10
2023-02-11T18:12:25.256Z,11.07
2023-02-11T18:14:57.901Z,10.50
2023-02-11T18:17:25.473Z,14.93
2023-02-11T18:19:56.762Z,17.10
2023-02-11T18:22:24.808Z,14.13
2023-02-11T18:24:53.590Z,16.30
2023-02-11T18:27:21.466Z,13.98
2023-02-11T18:29:48.287Z,12.43
2023-02-11T18:32:15.085Z,10.85
2023-02-11T18:34:42.012Z,12.48
2023-02-11T18:37:09.110Z,11.98
2023-02-11T18:39:37.005Z,12.25
2023-02-11T18:42:03.991Z,12.93
2023-02-11T18:44:30.797Z,14.75
2023-02-11T18:46:57.733Z,14.52
2023-02-11T18:49:24.541Z,12.60
2023-02-11T18:51:51.414Z,13.70
2023-02-11T18:54:18.190Z,14.02
2023-02-11T18:56:45.001Z,16.42
2023-02-11T18:59:12.625Z,15.07
2023-02-11T19:01:43.362Z,13.05
2023-02-11T19:04:10.398Z,12.95
2023-02-11T19:06:38.183Z,11.88
2023-02-11T19:09:09.860Z,12.55
2023-02-11T19:11:54.054Z,12.20
2023-02-11T19:14:27.064Z,12.57
2023-02-11T19:16:56.260Z,10.75
2023-02-11T19:19:28.271Z,20.52
2023-02-11T19:21:55.822Z,12.90
2023-02-11T19:24:23.429Z,11.00
2023-02-11T19:26:52.477Z,11.70
2023-02-11T19:29:19.584Z,11.68
2023-02-11T19:31:46.836Z,11.35
2023-02-11T19:34:15.546Z,12.63
2023-02-11T19:36:42.852Z,12.55
2023-02-11T19:39:10.179Z,11.48
2023-02-11T19:41:37.138Z,13.10
2023-02-11T19:44:05.468Z,12.52
2023-02-11T19:46:40.867Z,11.57
2023-02-11T19:49:08.158Z,14.40
2023-02-11T19:51:37.384Z,19.88
2023-02-11T19:54:04.393Z,19.27
2023-02-11T19:56:31.279Z,22.85
2023-02-11T19:58:58.547Z,19.63
2023-02-11T20:01:26.118Z,16.10
2023-02-11T20:03:55.305Z,15.18
2023-02-11T20:06:29.142Z,16.67
2023-02-11T20:09:09.963Z,21.23
2023-02-11T20:11:37.821Z,16.90
2023-02-11T20:14:06.761Z,16.75
2023-02-11T20:16:47.686Z,12.30
2023-02-11T20:19:18.252Z,12.88
2023-02-11T20:21:47.647Z,15.02
2023-02-11T20:24:15.874Z,24.27
2023-02-11T20:26:42.830Z,17.77
2023-02-11T20:29:09.767Z,20.10
2023-02-11T20:31:36.995Z,18.17
2023-02-11T20:34:04.127Z,14.05
2023-02-11T20:36:35.512Z,17.08
2023-02-11T20:39:04.822Z,15.20
2023-02-11T20:41:34.959Z,15.20
2023-02-11T20:44:05.367Z,14.57
2023-02-11T20:46:34.192Z,15.07
2023-02-11T20:49:02.641Z,17.70
2023-02-11T20:51:32.167Z,14.07
2023-02-11T20:53:59.482Z,14.85
2023-02-11T20:56:32.136Z,12.60
2023-02-11T20:59:00.150Z,14.65
2023-02-11T21:01:34.798Z,18.35
2023-02-11T21:04:07.436Z,22.02
2023-02-11T21:06:43.052Z,18.13
2023-02-11T21:09:14.327Z,14.40
2023-02-11T21:11:41.970Z,13.75
2023-02-11T21:14:10.266Z,19.35
2023-02-11T21:16:37.483Z,12.40
2023-02-11T21:19:04.640Z,17.92
2023-02-11T21:21:32.405Z,14.93
2023-02-11T21:23:59.327Z,16.05
2023-02-11T21:26:26.431Z,14.50
2023-02-11T21:28:55.128Z,13.38
2023-02-11T21:31:27.560Z,13.30
2023-02-11T21:33:57.269Z,13.48
2023-02-11T21:36:24.380Z,15.70
2023-02-11T21:38:51.690Z,14.35
2023-02-11T21:41:22.551Z,13.07
2023-02-11T21:43:50.493Z,13.43
2023-02-11T21:46:18.699Z,12.70
2023-02-11T21:48:45.665Z,11.27
2023-02-11T21:51:21.856Z,13.02
2023-02-11T21:53:52.628Z,13.35
2023-02-11T21:56:19.513Z,13.40
2023-02-11T21:58:46.599Z,14.25
2023-02-11T22:01:16.173Z,14.55
2023-02-11T22:03:44.004Z,15.05
2023-02-11T22:06:13.584Z,13.65
2023-02-11T22:08:41.380Z,13.32
2023-02-11T22:11:11.315Z,15.52
2023-02-11T22:13:40.570Z,17.05
2023-02-11T22:16:11.210Z,16.38
2023-02-11T22:18:38.464Z,15.82
2023-02-11T22:21:16.932Z,16.92
2023-02-11T22:23:44.638Z,15.90
2023-02-11T22:26:19.638Z,13.93
2023-02-11T22:28:46.681Z,14.57
2023-02-11T22:31:19.490Z,15.70
2023-02-11T22:33:47.129Z,15.57
2023-02-11T22:36:29.208Z,15.15
2023-02-11T22:38:56.475Z,15.80
2023-02-11T22:41:23.699Z,16.00
2023-02-11T22:43:50.668Z,14.15
2023-02-11T22:46:19.267Z,13.35
2023-02-11T22:48:46.808Z,14.20
2023-02-11T22:51:16.919Z,13.63
2023-02-11T22:53:44.526Z,13.30
2023-02-11T22:56:15.398Z,14.80
2023-02-11T22:58:42.973Z,13.77
2023-02-11T23:01:10.113Z,20.45
2023-02-11T23:03:37.139Z,15.20
2023-02-11T23:06:04.224Z,15.63
2023-02-11T23:08:32.531Z,14.45
2023-02-11T23:11:07.878Z,14.15
2023-02-11T23:13:37.052Z,14.90
2023-02-11T23:16:06.785Z,15.00
2023-02-11T23:18:35.422Z,13.45
2023-02-11T23:21:04.884Z,13.70
2023-02-11T23:23:31.687Z,14.20
2023-02-11T23:25:58.676Z,14.75
2023-02-11T23:28:25.571Z,15.05
2023-02-11T23:30:52.794Z,14.05
2023-02-11T23:33:21.956Z,14.50
2023-02-11T23:35:48.864Z,15.27
2023-02-11T23:38:15.851Z,15.35
2023-02-11T23:40:43.076Z,14.50
2023-02-11T23:43:09.932Z,15.60
2023-02-11T23:45:36.767Z,15.95
2023-02-11T23:48:03.685Z,16.00
2023-02-11T23:50:30.535Z,17.67
2023-02-11T23:52:57.382Z,18.20
2023-02-11T23:55:24.110Z,19.67
2023-02-11T23:57:50.870Z,18.58
